Time;durP1;ratioP1;P1;durP2;ratioP2;P2;SDS_P1;SDS_P2;PMS_P1;PMS_P2;Temp;Humidity;BMP_temperature;BMP_pressure;BME280_temperature;BME280_humidity;BME280_pressure;Samples;Min_cycle;Max_cycle;Signal;HPM_P1;HPM_P2
2022/06/05 00:00:47;;;;;;;41.50;36.45;;;;;;;16.10;100.00;99420.53;2081896;28;20204;-71
2022/06/05 00:01:55;;;;;;;44.53;37.17;;;;;;;16.06;100.00;99433.84;2090802;28;20594;-71
2022/06/05 00:03:20;;;;;;;44.22;37.17;;;;;;;16.03;100.00;99425.63;2091285;28;20184;-71
2022/06/05 00:04:34;;;;;;;44.63;37.72;;;;;;;15.99;100.00;99430.88;2091214;28;20566;-71
2022/06/05 00:05:43;;;;;;;44.72;37.53;;;;;;;15.98;100.00;99426.59;2091197;28;20178;-71
2022/06/05 00:06:52;;;;;;;47.95;37.25;;;;;;;15.99;100.00;99422.03;2090818;28;20222;-71
2022/06/05 00:08:01;;;;;;;43.05;38.13;;;;;;;15.99;100.00;99414.72;2091358;28;20683;-71
2022/06/05 00:09:09;;;;;;;46.90;38.33;;;;;;;15.94;100.00;99412.22;2091150;28;20179;-71
2022/06/05 00:10:14;;;;;;;48.63;38.38;;;;;;;15.92;100.00;99413.66;2090737;28;20257;-76
2022/06/05 00:11:16;;;;;;;44.58;36.70;;;;;;;15.97;100.00;99416.94;2090534;28;20743;-72
2022/06/05 00:12:19;;;;;;;46.65;38.08;;;;;;;15.99;100.00;99422.81;2091099;28;20187;-71
2022/06/05 00:13:26;;;;;;;48.08;38.08;;;;;;;15.99;100.00;99413.94;2091197;28;20236;-72
2022/06/05 00:14:27;;;;;;;45.58;38.60;;;;;;;15.98;100.00;99421.19;2091297;28;20626;-72
2022/06/05 00:15:30;;;;;;;45.27;38.73;;;;;;;15.98;100.00;99417.72;2091075;28;20238;-71
2022/06/05 00:16:30;;;;;;;47.47;38.83;;;;;;;16.00;100.00;99421.69;2090323;28;20223;-71
2022/06/05 00:17:33;;;;;;;51.80;39.73;;;;;;;15.98;100.00;99428.50;2082101;28;20208;-71
2022/06/05 00:18:36;;;;;;;46.45;38.83;;;;;;;15.92;100.00;99427.91;2090657;28;20540;-72
2022/06/05 00:19:38;;;;;;;46.75;38.25;;;;;;;15.90;100.00;99429.31;2091002;28;20209;-72
2022/06/05 00:20:41;;;;;;;41.00;36.60;;;;;;;15.88;100.00;99428.84;2098608;28;20202;-71
2022/06/05 00:21:44;;;;;;;40.75;36.28;;;;;;;15.85;100.00;99421.44;2090209;28;20211;-72
2022/06/05 00:22:46;;;;;;;41.25;36.08;;;;;;;15.84;100.00;99423.31;2090395;28;20187;-71
2022/06/05 00:23:50;;;;;;;39.53;35.22;;;;;;;15.85;100.00;99429.50;2090600;28;20194;-72
2022/06/05 00:24:51;;;;;;;39.67;35.45;;;;;;;15.83;100.00;99427.94;2090413;28;20223;-71
2022/06/05 00:26:04;;;;;;;43.53;37.20;;;;;;;15.81;100.00;99437.41;2090963;28;20183;-71
2022/06/05 00:27:12;;;;;;;45.30;37.63;;;;;;;15.77;100.00;99436.47;2091096;28;20249;-71
2022/06/05 00:28:22;;;;;;;41.70;36.20;;;;;;;15.75;100.00;99444.09;2090769;28;20582;-72
2022/06/05 00:29:43;;;;;;;41.58;36.78;;;;;;;15.77;100.00;99455.31;2091133;28;20175;-72
2022/06/05 00:30:51;;;;;;;48.15;36.92;;;;;;;15.82;100.00;99453.25;2090963;28;20257;-71
2022/06/05 00:31:59;;;;;;;54.10;37.65;;;;;;;15.87;100.00;99449.59;2090230;28;20294;-72
2022/06/05 00:33:04;;;;;;;57.63;38.33;;;;;;;15.91;100.00;99444.38;2090366;28;20180;-72
2022/06/05 00:34:09;;;;;;;70.65;39.30;;;;;;;15.86;100.00;99447.22;2090779;28;20700;-72
2022/06/05 00:35:18;;;;;;;74.65;40.35;;;;;;;15.81;100.00;99445.47;2090844;28;20281;-72
2022/06/05 00:36:27;;;;;;;95.55;43.17;;;;;;;15.85;100.00;99446.44;2089788;28;20214;-72
2022/06/05 00:37:35;;;;;;;142.68;44.55;;;;;;;15.82;100.00;99447.09;2083551;28;20565;-72
2022/06/05 00:38:41;;;;;;;102.40;42.42;;;;;;;15.87;100.00;99448.78;2090218;28;20237;-72
2022/06/05 00:39:51;;;;;;;100.18;43.22;;;;;;;15.89;100.00;99452.75;2090419;28;20175;-72
2022/06/05 00:41:12;;;;;;;136.10;44.97;;;;;;;15.99;100.00;99451.63;2090211;28;20341;-73
2022/06/05 00:42:24;;;;;;;99.88;42.20;;;;;;;15.95;100.00;99442.59;2090579;28;20618;-73
2022/06/05 00:43:25;;;;;;;148.05;44.67;;;;;;;15.99;100.00;99454.31;2098450;28;20201;-73
2022/06/05 00:44:31;;;;;;;176.03;47.73;;;;;;;16.01;100.00;99446.69;2098499;28;20197;-73
2022/06/05 00:45:32;;;;;;;144.35;45.60;;;;;;;15.99;100.00;99446.25;2090143;28;20626;-73
2022/06/05 00:46:38;;;;;;;149.27;46.13;;;;;;;15.99;100.00;99452.41;2090282;28;20210;-73
2022/06/05 00:47:41;;;;;;;167.90;44.08;;;;;;;16.00;100.00;99450.50;2090835;28;20174;-73
2022/06/05 00:48:42;;;;;;;108.85;42.70;;;;;;;15.93;100.00;99452.91;2090866;28;20273;-72
2022/06/05 00:49:49;;;;;;;159.07;44.50;;;;;;;15.92;100.00;99462.09;2090113;28;20187;-72
2022/06/05 00:50:50;;;;;;;158.07;42.70;;;;;;;15.83;100.00;99459.41;2090242;28;20257;-72
2022/06/05 00:51:52;;;;;;;152.23;44.07;;;;;;;15.80;100.00;99458.13;2090497;28;20223;-72
2022/06/05 00:52:55;;;;;;;168.13;44.05;;;;;;;15.68;100.00;99452.63;2090736;28;20622;-72
2022/06/05 00:53:58;;;;;;;162.38;44.72;;;;;;;15.82;100.00;99450.56;2090071;28;20191;-72
2022/06/05 00:54:59;;;;;;;141.20;44.80;;;;;;;15.86;100.00;99453.38;2090246;28;20256;-71
2022/06/05 00:56:02;;;;;;;142.47;42.23;;;;;;;15.86;100.00;99444.53;2090290;28;20256;-72
2022/06/05 00:57:07;;;;;;;135.80;42.47;;;;;;;15.93;100.00;99458.28;2090049;28;20702;-71
2022/06/05 00:58:09;;;;;;;120.55;42.05;;;;;;;15.95;100.00;99453.38;2090693;28;20187;-72
2022/06/05 00:59:12;;;;;;;126.07;42.25;;;;;;;15.93;100.00;99447.53;2090020;28;20688;-72
2022/06/05 01:00:17;;;;;;;139.27;42.50;;;;;;;15.95;100.00;99445.28;2090086;28;20194;-72
2022/06/05 01:01:20;;;;;;;150.85;42.72;;;;;;;15.98;100.00;99447.31;2089951;28;20628;-72
2022/06/05 01:02:23;;;;;;;137.93;41.25;;;;;;;16.01;100.00;99444.00;2090196;28;20214;-72
2022/06/05 01:03:25;;;;;;;138.77;42.28;;;;;;;16.01;100.00;99444.81;2098234;28;20190;-72
2022/06/05 01:04:27;;;;;;;100.63;41.05;;;;;;;16.01;100.00;99439.41;2089953;28;20209;-72
2022/06/05 01:05:28;;;;;;;142.63;41.80;;;;;;;16.01;100.00;99438.63;2090043;28;20274;-72
2022/06/05 01:06:30;;;;;;;134.45;40.42;;;;;;;15.99;100.00;99432.78;2090262;28;20229;-72
2022/06/05 01:07:31;;;;;;;124.10;40.88;;;;;;;15.97;100.00;99440.38;2089862;28;20246;-72
2022/06/05 01:08:34;;;;;;;106.07;42.50;;;;;;;16.01;100.00;99438.63;2090156;28;20246;-72
2022/06/05 01:09:36;;;;;;;145.45;43.25;;;;;;;16.02;100.00;99432.13;2090820;28;20192;-72
2022/06/05 01:10:49;;;;;;;117.35;42.72;;;;;;;16.04;100.00;99438.75;2090571;28;20187;-72
2022/06/05 01:12:07;;;;;;;111.60;43.13;;;;;;;16.09;100.00;99432.44;2090942;28;20218;-72
2022/06/05 01:13:13;;;;;;;149.57;44.45;;;;;;;16.13;100.00;99433.34;2090155;28;20194;-72
2022/06/05 01:14:27;;;;;;;114.93;43.08;;;;;;;16.10;100.00;99442.06;2090590;28;20171;-72
2022/06/05 01:15:36;;;;;;;131.48;42.88;;;;;;;16.11;100.00;99440.97;2089848;28;20601;-72
2022/06/05 01:16:45;;;;;;;97.25;42.72;;;;;;;16.11;100.00;99444.44;2090106;28;20171;-72
2022/06/05 01:17:55;;;;;;;105.90;42.20;;;;;;;16.13;100.00;99446.00;2090673;28;20179;-72
2022/06/05 01:19:06;;;;;;;120.32;43.65;;;;;;;16.11;100.00;99444.44;2090622;28;20673;-72
2022/06/05 01:20:12;;;;;;;122.57;42.35;;;;;;;16.07;100.00;99445.41;2090565;28;20641;-72
2022/06/05 01:21:44;;;;;;;117.53;45.05;;;;;;;16.12;100.00;99456.00;2090278;28;20229;-72
2022/06/05 01:23:09;;;;;;;123.30;44.65;;;;;;;16.15;100.00;99454.56;2088193;28;20202;-72
2022/06/05 01:24:22;;;;;;;136.60;44.03;;;;;;;16.16;100.00;99454.25;2089882;28;20198;-72
2022/06/05 01:25:43;;;;;;;131.43;45.53;;;;;;;16.16;100.00;99456.13;2090061;28;20180;-72
2022/06/05 01:26:49;;;;;;;126.88;45.15;;;;;;;16.17;100.00;99450.44;2089843;28;20226;-72
2022/06/05 01:27:55;;;;;;;129.75;45.55;;;;;;;16.17;100.00;99452.34;2089770;28;20241;-72
2022/06/05 01:29:01;;;;;;;159.77;47.20;;;;;;;16.14;100.00;99453.75;2089819;28;20209;-72
2022/06/05 01:30:04;;;;;;;137.90;47.88;;;;;;;16.17;100.00;99453.13;2089811;28;20235;-72
2022/06/05 01:31:09;;;;;;;161.48;48.65;;;;;;;16.14;100.00;99453.75;2090666;28;20258;-72
2022/06/05 01:32:26;;;;;;;146.52;48.72;;;;;;;16.19;100.00;99450.91;2089768;28;20588;-72
2022/06/05 01:33:28;;;;;;;143.30;47.42;;;;;;;16.24;100.00;99449.91;2090103;28;20179;-72
2022/06/05 01:34:34;;;;;;;129.15;47.58;;;;;;;16.26;100.00;99445.81;2090668;28;20654;-72
2022/06/05 01:35:37;;;;;;;129.45;49.10;;;;;;;16.23;100.00;99435.66;2089782;28;20556;-72
2022/06/05 01:36:44;;;;;;;127.70;48.55;;;;;;;16.22;100.00;99439.47;2081741;28;20613;-72
2022/06/05 01:37:49;;;;;;;144.35;48.55;;;;;;;16.24;100.00;99434.56;2090057;28;20232;-72
2022/06/05 01:38:56;;;;;;;146.20;48.03;;;;;;;16.26;100.00;99434.25;2090668;28;20622;-72
2022/06/05 01:40:02;;;;;;;158.98;49.95;;;;;;;16.25;100.00;99440.75;2090667;28;20172;-72
2022/06/05 01:41:08;;;;;;;164.63;49.85;;;;;;;16.19;100.00;99432.06;2090547;28;20533;-72
2022/06/05 01:42:13;;;;;;;147.65;50.05;;;;;;;16.18;100.00;99437.78;2089773;28;20699;-72
2022/06/05 01:43:17;;;;;;;149.73;51.80;;;;;;;16.17;100.00;99436.19;2089862;28;20218;-72
2022/06/05 01:44:21;;;;;;;193.02;51.25;;;;;;;16.21;100.00;99435.22;2090413;28;20286;-72
2022/06/05 01:45:26;;;;;;;189.45;50.45;;;;;;;16.23;100.00;99432.97;2090500;28;20305;-72
2022/06/05 01:46:34;;;;;;;160.75;52.17;;;;;;;16.19;100.00;99429.38;2090518;28;20225;-72
2022/06/05 01:47:37;;;;;;;162.70;50.78;;;;;;;16.26;100.00;99428.88;2090647;28;20238;-72
2022/06/05 01:48:40;;;;;;;176.60;50.03;;;;;;;16.17;100.00;99425.44;2090413;28;20275;-72
2022/06/05 01:49:47;;;;;;;215.27;53.00;;;;;;;16.18;100.00;99433.19;2089664;28;20237;-72
2022/06/05 01:50:52;;;;;;;215.40;52.08;;;;;;;16.27;100.00;99431.22;2090071;28;20398;-72
2022/06/05 01:52:01;;;;;;;170.18;52.38;;;;;;;16.32;100.00;99431.03;2089940;28;20210;-72
2022/06/05 01:53:08;;;;;;;150.87;51.87;;;;;;;16.25;100.00;99433.47;2090385;28;20254;-72
2022/06/05 01:54:12;;;;;;;158.73;49.67;;;;;;;16.40;100.00;99432.88;2089940;28;20477;-72
2022/06/05 01:55:22;;;;;;;180.05;51.35;;;;;;;16.45;100.00;99441.91;2089793;28;20183;-72
2022/06/05 01:56:30;;;;;;;218.18;50.25;;;;;;;16.44;100.00;99432.25;2089757;28;20321;-72
2022/06/05 01:57:35;;;;;;;194.65;49.88;;;;;;;16.44;100.00;99429.56;2089951;28;20222;-72
2022/06/05 01:58:40;;;;;;;199.32;50.22;;;;;;;16.44;100.00;99432.25;2090387;28;20220;-72
2022/06/05 01:59:44;;;;;;;199.70;51.58;;;;;;;16.43;100.00;99436.06;2090570;28;20185;-72
2022/06/05 02:00:49;;;;;;;182.27;51.97;;;;;;;16.43;100.00;99428.78;2090263;28;20190;-73
2022/06/05 02:01:53;;;;;;;188.88;49.47;;;;;;;16.45;100.00;99429.22;2089629;28;20446;-72
2022/06/05 02:02:57;;;;;;;214.57;53.70;;;;;;;16.50;100.00;99439.81;2089849;28;20186;-72
2022/06/05 02:04:05;;;;;;;162.30;50.00;;;;;;;16.47;100.00;99435.09;2090581;28;20178;-72
2022/06/05 02:05:15;;;;;;;182.07;51.60;;;;;;;16.45;100.00;99436.53;2090559;28;20163;-72
2022/06/05 02:06:20;;;;;;;159.18;50.53;;;;;;;16.44;100.00;99440.34;2089116;28;20226;-72
2022/06/05 02:07:27;;;;;;;218.83;50.33;;;;;;;16.45;100.00;99436.53;2082156;28;20203;-73
2022/06/05 02:08:32;;;;;;;208.43;50.25;;;;;;;16.46;100.00;99435.41;2089787;28;20784;-73
2022/06/05 02:09:36;;;;;;;226.30;51.97;;;;;;;16.46;100.00;99443.50;2090484;28;20278;-73
2022/06/05 02:10:43;;;;;;;176.55;50.05;;;;;;;16.42;100.00;99437.16;2090330;28;20962;-72
2022/06/05 02:11:49;;;;;;;197.48;53.25;;;;;;;16.43;100.00;99434.16;2089666;28;20190;-72
2022/06/05 02:12:50;;;;;;;175.05;52.00;;;;;;;16.45;100.00;99439.22;2089785;28;20164;-73
2022/06/05 02:14:00;;;;;;;182.03;51.37;;;;;;;16.39;100.00;99436.69;2090230;28;20183;-72
2022/06/05 02:15:03;;;;;;;192.50;51.75;;;;;;;16.42;100.00;99437.16;2090325;28;20406;-72
2022/06/05 02:16:06;;;;;;;156.77;50.47;;;;;;;16.45;100.00;99439.22;2090419;28;20233;-72
2022/06/05 02:17:07;;;;;;;166.67;49.97;;;;;;;16.44;100.00;99434.94;2089541;28;20226;-73
2022/06/05 02:18:09;;;;;;;183.45;51.40;;;;;;;16.45;100.00;99442.69;2089700;28;20428;-72
2022/06/05 02:19:14;;;;;;;165.85;48.78;;;;;;;16.38;100.00;99437.03;2089588;28;20230;-72
2022/06/05 02:20:16;;;;;;;139.23;48.88;;;;;;;16.44;100.00;99441.13;2089707;28;20270;-72
2022/06/05 02:21:17;;;;;;;156.45;48.45;;;;;;;16.40;100.00;99435.59;2088983;28;20269;-73
2022/06/05 02:22:23;;;;;;;155.53;48.43;;;;;;;16.35;100.00;99438.47;2081342;28;20241;-72
2022/06/05 02:23:25;;;;;;;173.82;48.60;;;;;;;16.39;100.00;99439.41;2089549;28;20202;-73
2022/06/05 02:24:27;;;;;;;161.32;49.85;;;;;;;16.39;100.00;99444.78;2090933;28;20183;-73
2022/06/05 02:25:28;;;;;;;168.25;49.78;;;;;;;16.45;100.00;99444.59;2091912;28;20229;-73
2022/06/05 02:26:31;;;;;;;204.50;50.97;;;;;;;16.52;100.00;99445.69;2091886;28;20548;-72
2022/06/05 02:27:33;;;;;;;159.55;51.20;;;;;;;16.55;100.00;99441.53;2091969;28;20187;-72
2022/06/05 02:28:39;;;;;;;161.73;48.92;;;;;;;16.43;100.00;99444.16;2091990;28;20771;-73
2022/06/05 02:29:40;;;;;;;186.80;49.10;;;;;;;16.35;100.00;99441.16;2091199;28;20724;-72
2022/06/05 02:30:52;;;;;;;180.10;49.93;;;;;;;16.45;100.00;99448.09;2091265;28;20183;-73
2022/06/05 02:32:05;;;;;;;165.95;47.08;;;;;;;16.38;100.00;99443.19;2091187;28;20191;-72
2022/06/05 02:33:14;;;;;;;197.15;48.00;;;;;;;16.40;100.00;99450.94;2091497;28;20183;-73
2022/06/05 02:34:26;;;;;;;287.15;53.65;;;;;;;16.40;100.00;99445.56;2091042;28;20257;-72
2022/06/05 02:35:36;;;;;;;206.23;49.17;;;;;;;16.36;100.00;99439.25;2091503;28;20203;-72
2022/06/05 02:36:44;;;;;;;195.32;50.35;;;;;;;16.32;100.00;99446.41;2091533;28;20219;-72
2022/06/05 02:37:53;;;;;;;206.43;50.75;;;;;;;16.40;100.00;99449.06;2091892;28;20205;-72
2022/06/05 02:39:03;;;;;;;270.25;54.10;;;;;;;16.38;100.00;99451.28;2091817;28;20203;-73
2022/06/05 02:40:11;;;;;;;213.85;53.72;;;;;;;16.35;100.00;99449.25;2091777;28;20622;-72
2022/06/05 02:41:20;;;;;;;225.88;53.40;;;;;;;16.40;100.00;99450.94;2091149;28;20191;-72
2022/06/05 02:42:29;;;;;;;204.02;52.00;;;;;;;16.38;100.00;99459.38;2091426;28;20179;-72
2022/06/05 02:43:38;;;;;;;224.18;51.90;;;;;;;16.42;100.00;99454.13;2091092;28;20717;-72
2022/06/05 02:44:44;;;;;;;194.40;52.58;;;;;;;16.44;100.00;99454.59;2083633;28;20203;-72
2022/06/05 02:45:51;;;;;;;225.55;53.08;;;;;;;16.34;100.00;99446.88;2091264;28;20186;-72
2022/06/05 02:47:01;;;;;;;194.20;51.47;;;;;;;16.37;100.00;99465.88;2091083;28;20222;-72
2022/06/05 02:48:08;;;;;;;179.45;50.67;;;;;;;16.34;100.00;99450.38;2083953;28;20235;-72
2022/06/05 02:49:13;;;;;;;221.80;51.90;;;;;;;16.34;100.00;99446.88;2091045;28;20330;-72
2022/06/05 02:50:20;;;;;;;159.85;51.60;;;;;;;16.33;100.00;99456.88;2091280;28;20266;-72
2022/06/05 02:51:23;;;;;;;205.18;49.80;;;;;;;16.24;100.00;99452.59;2091422;28;20302;-72
2022/06/05 02:52:25;;;;;;;184.15;50.03;;;;;;;16.22;100.00;99455.63;2091678;28;20187;-72
2022/06/05 02:53:27;;;;;;;172.15;50.95;;;;;;;16.22;100.00;99457.53;2091794;28;20206;-72
2022/06/05 02:54:29;;;;;;;168.55;50.75;;;;;;;16.27;100.00;99457.38;2091879;28;20193;-72
2022/06/05 02:55:32;;;;;;;176.65;50.28;;;;;;;16.30;100.00;99452.13;2091658;28;20195;-72
2022/06/05 02:56:33;;;;;;;177.50;50.85;;;;;;;16.32;100.00;99460.66;2091627;28;20676;-73
2022/06/05 02:57:35;;;;;;;161.57;52.25;;;;;;;16.34;100.00;99463.84;2091572;28;20203;-72
2022/06/05 02:58:37;;;;;;;147.90;47.97;;;;;;;16.29;100.00;99466.69;2090920;28;20230;-72
2022/06/05 02:59:44;;;;;;;160.27;48.47;;;;;;;16.32;100.00;99467.94;2091047;28;20673;-73
2022/06/05 03:03:27;;;;;;;160.33;47.27;;;;;;;16.33;100.00;99474.91;2090960;28;20903;-72
2022/06/05 03:03:29;;;;;;;161.13;45.60;;;;;;;16.27;100.00;99466.25;2090960;28;20664;-72
2022/06/05 03:04:30;;;;;;;161.93;44.47;;;;;;;16.35;100.00;99480.78;2091179;28;20206;-72
2022/06/05 03:05:32;;;;;;;164.60;44.37;;;;;;;16.32;100.00;99473.31;2091014;28;20270;-72
2022/06/05 03:06:35;;;;;;;166.70;44.03;;;;;;;16.21;100.00;99480.19;2090463;28;20466;-72
2022/06/05 03:07:40;;;;;;;159.30;42.58;;;;;;;16.18;100.00;99476.25;2083406;28;20727;-72
2022/06/05 03:08:42;;;;;;;128.63;40.35;;;;;;;16.27;100.00;99478.91;2083077;28;20237;-72
2022/06/05 03:09:44;;;;;;;164.63;43.77;;;;;;;16.36;100.00;99490.44;2090941;28;20191;-73
2022/06/05 03:10:50;;;;;;;185.82;42.05;;;;;;;16.35;100.00;99481.56;2091657;28;20206;-72
2022/06/05 03:11:51;;;;;;;141.55;38.17;;;;;;;16.27;100.00;99481.59;2090878;28;20225;-72
2022/06/05 03:12:52;;;;;;;166.80;38.47;;;;;;;16.28;100.00;99481.28;2090797;28;20249;-73
2022/06/05 03:13:57;;;;;;;147.13;39.65;;;;;;;16.29;100.00;99480.16;2090930;28;20183;-72
2022/06/05 03:15:01;;;;;;;160.82;37.55;;;;;;;16.26;100.00;99483.50;2091725;28;20240;-72
2022/06/05 03:16:03;;;;;;;128.88;36.88;;;;;;;16.27;100.00;99479.69;2091158;28;20229;-72
2022/06/05 03:17:04;;;;;;;134.33;38.83;;;;;;;16.19;100.00;99479.72;2090768;28;20198;-72
2022/06/05 03:18:08;;;;;;;129.50;38.65;;;;;;;16.15;100.00;99478.78;2090837;28;20488;-72
2022/06/05 03:19:10;;;;;;;111.30;37.25;;;;;;;16.19;100.00;99480.53;2090755;28;20673;-73
2022/06/05 03:20:12;;;;;;;151.23;39.15;;;;;;;16.27;100.00;99479.69;2082506;28;20206;-72
2022/06/05 03:21:14;;;;;;;139.98;39.22;;;;;;;16.27;100.00;99482.38;2090349;28;20230;-73
2022/06/05 03:22:15;;;;;;;122.65;37.88;;;;;;;16.25;100.00;99475.75;2091656;28;20652;-72
2022/06/05 03:23:20;;;;;;;140.27;42.20;;;;;;;16.28;100.00;99481.28;2091507;28;20603;-72
2022/06/05 03:24:21;;;;;;;156.40;41.57;;;;;;;16.28;100.00;99480.50;2090766;28;20199;-72
2022/06/05 03:25:25;;;;;;;123.40;41.23;;;;;;;16.34;100.00;99476.50;2090945;28;20483;-72
2022/06/05 03:26:27;;;;;;;130.40;41.00;;;;;;;16.28;100.00;99469.72;2090802;28;20635;-72
2022/06/05 03:27:30;;;;;;;124.27;38.67;;;;;;;16.13;100.00;99464.84;2090880;28;20182;-72
2022/06/05 03:28:30;;;;;;;147.93;41.20;;;;;;;16.14;100.00;99472.59;2091407;28;20191;-72
2022/06/05 03:29:34;;;;;;;171.23;40.17;;;;;;;16.17;100.00;99469.28;2091380;28;20248;-72
2022/06/05 03:30:37;;;;;;;155.02;40.35;;;;;;;16.16;100.00;99467.72;2091357;28;20187;-72
2022/06/05 03:31:38;;;;;;;163.98;40.13;;;;;;;16.16;100.00;99473.09;2090732;28;20203;-72
2022/06/05 03:32:40;;;;;;;123.33;40.03;;;;;;;16.18;100.00;99473.56;2082429;28;20807;-72
2022/06/05 03:33:40;;;;;;;112.45;41.92;;;;;;;16.21;100.00;99470.22;2090598;28;20584;-72
2022/06/05 03:34:42;;;;;;;105.27;40.10;;;;;;;16.29;100.00;99471.28;2091619;28;20202;-72
2022/06/05 03:35:45;;;;;;;108.60;40.72;;;;;;;16.29;100.00;99477.47;2090675;28;20278;-73
2022/06/05 03:36:48;;;;;;;109.20;40.55;;;;;;;16.25;100.00;99476.53;2090997;28;20223;-72
2022/06/05 03:37:49;;;;;;;113.50;40.75;;;;;;;16.28;100.00;99473.19;2091542;28;20673;-73
2022/06/05 03:38:51;;;;;;;101.60;42.30;;;;;;;16.34;100.00;99480.00;2091375;28;20228;-72
2022/06/05 03:39:51;;;;;;;114.53;43.17;;;;;;;16.35;100.00;99478.09;2090603;28;20226;-72
2022/06/05 03:40:53;;;;;;;109.00;42.07;;;;;;;16.45;100.00;99479.63;2090786;28;20182;-73
2022/06/05 03:41:56;;;;;;;143.48;42.55;;;;;;;16.46;100.00;99475.81;2091512;28;20214;-72
2022/06/05 03:42:59;;;;;;;104.85;40.30;;;;;;;16.47;100.00;99472.00;2091434;28;20179;-72
2022/06/05 03:44:00;;;;;;;111.07;40.25;;;;;;;16.48;100.00;99478.97;2091311;28;20195;-72
2022/06/05 03:45:03;;;;;;;148.17;42.63;;;;;;;16.52;100.00;99472.63;2090535;28;20199;-72
2022/06/05 03:46:05;;;;;;;101.10;39.15;;;;;;;16.54;100.00;99478.47;2090699;28;20191;-73
2022/06/05 03:47:08;;;;;;;116.43;39.67;;;;;;;16.47;100.00;99477.38;2090680;28;20187;-72
2022/06/05 03:48:09;;;;;;;111.53;37.65;;;;;;;16.39;100.00;99470.94;2090668;28;20277;-73
2022/06/05 03:49:11;;;;;;;124.67;37.00;;;;;;;16.36;100.00;99477.75;2090606;28;20222;-72
2022/06/05 03:50:15;;;;;;;97.40;36.70;;;;;;;16.27;100.00;99482.38;2090877;28;20274;-72
2022/06/05 03:51:18;;;;;;;118.65;40.60;;;;;;;16.30;100.00;99481.72;2090901;28;20227;-72
2022/06/05 03:52:19;;;;;;;95.18;37.63;;;;;;;16.31;100.00;99471.75;2091337;28;20198;-72
2022/06/05 03:53:21;;;;;;;85.28;38.08;;;;;;;16.38;100.00;99466.66;2090556;28;20209;-72
2022/06/05 03:54:22;;;;;;;79.32;37.35;;;;;;;16.35;100.00;99476.19;2082376;28;20290;-72
2022/06/05 03:55:25;;;;;;;84.43;38.63;;;;;;;16.42;100.00;99475.69;2090633;28;20258;-72
2022/06/05 03:56:28;;;;;;;79.68;39.13;;;;;;;16.50;100.00;99476.72;2091450;28;20607;-72
2022/06/05 03:57:33;;;;;;;86.65;38.55;;;;;;;16.55;100.00;99485.44;2091403;28;20240;-73
2022/06/05 03:58:33;;;;;;;96.53;37.65;;;;;;;16.58;100.00;99481.28;2091433;28;20202;-73
2022/06/05 03:59:35;;;;;;;85.30;38.67;;;;;;;16.48;100.00;99473.56;2091426;28;20190;-73
2022/06/05 04:00:37;;;;;;;97.10;38.60;;;;;;;16.51;100.00;99479.13;2090437;28;20301;-72
2022/06/05 04:01:39;;;;;;;97.45;37.40;;;;;;;16.52;100.00;99478.00;2090801;28;20195;-73
2022/06/05 04:02:42;;;;;;;84.30;36.67;;;;;;;16.58;100.00;99478.59;2091182;28;20248;-73
2022/06/05 04:03:45;;;;;;;124.97;39.20;;;;;;;16.59;100.00;99483.69;2091271;28;20417;-73
2022/06/05 04:04:46;;;;;;;95.37;38.03;;;;;;;16.57;100.00;99477.00;2091168;28;20774;-72
2022/06/05 04:05:47;;;;;;;110.73;37.93;;;;;;;16.55;100.00;99480.03;2091139;28;20499;-72
2022/06/05 04:06:48;;;;;;;98.18;39.17;;;;;;;16.58;100.00;99483.97;2090846;28;20246;-72
2022/06/05 04:07:50;;;;;;;70.93;38.17;;;;;;;16.57;100.00;99483.19;2090476;28;20206;-73
2022/06/05 04:08:51;;;;;;;100.33;36.73;;;;;;;16.55;100.00;99487.31;2090544;28;20665;-73
2022/06/05 04:09:52;;;;;;;90.13;37.10;;;;;;;16.49;100.00;99481.31;2091119;28;20789;-72
2022/06/05 04:10:53;;;;;;;92.80;36.57;;;;;;;16.30;100.00;99492.50;2090379;28;20202;-72
2022/06/05 04:11:55;;;;;;;98.87;38.40;;;;;;;16.32;100.00;99490.28;2090522;28;20420;-72
2022/06/05 04:12:56;;;;;;;80.70;37.33;;;;;;;16.38;100.00;99485.50;2090378;28;20293;-72
2022/06/05 04:13:58;;;;;;;97.17;36.60;;;;;;;16.39;100.00;99487.88;2090517;28;20680;-72
2022/06/05 04:14:59;;;;;;;91.83;36.47;;;;;;;16.42;100.00;99485.63;2091047;28;20488;-72
2022/06/05 04:16:09;;;;;;;74.47;39.20;;;;;;;16.46;100.00;99487.38;2091100;28;20526;-73
2022/06/05 04:17:11;;;;;;;93.75;37.42;;;;;;;16.37;100.00;99490.09;2091313;28;20172;-73
2022/06/05 04:18:13;;;;;;;74.30;37.03;;;;;;;16.40;100.00;99481.38;2090960;28;20265;-72
2022/06/05 04:19:15;;;;;;;99.63;37.97;;;;;;;16.38;100.00;99480.91;2090351;28;20456;-72
2022/06/05 04:20:16;;;;;;;81.70;37.97;;;;;;;16.43;100.00;99487.25;2090412;28;20183;-72
2022/06/05 04:21:19;;;;;;;83.80;36.78;;;;;;;16.40;100.00;99486.75;2089800;28;20850;-72
2022/06/05 04:22:20;;;;;;;102.20;36.93;;;;;;;16.38;100.00;99488.19;2090457;28;20237;-73
2022/06/05 04:23:21;;;;;;;78.47;37.43;;;;;;;16.35;100.00;99478.88;2091018;28;20783;-72
2022/06/05 04:24:26;;;;;;;107.00;37.87;;;;;;;16.34;100.00;99480.00;2091051;28;20425;-73
2022/06/05 04:25:27;;;;;;;76.35;37.03;;;;;;;16.36;100.00;99485.84;2089972;28;20627;-72
2022/06/05 04:26:30;;;;;;;84.77;38.27;;;;;;;16.42;100.00;99480.25;2090478;28;20300;-73
2022/06/05 04:27:31;;;;;;;76.43;36.38;;;;;;;16.37;100.00;99495.50;2091113;28;20274;-73
2022/06/05 04:28:32;;;;;;;100.27;38.10;;;;;;;16.31;100.00;99499.47;2090981;28;20190;-73
2022/06/05 04:29:34;;;;;;;101.95;36.70;;;;;;;16.28;100.00;99502.03;2090156;28;20304;-72
2022/06/05 04:30:36;;;;;;;108.68;37.38;;;;;;;16.25;100.00;99498.09;2090322;28;20678;-73
2022/06/05 04:31:44;;;;;;;71.07;36.33;;;;;;;16.22;100.00;99504.09;2090867;28;20593;-73
2022/06/05 04:32:45;;;;;;;89.63;36.20;;;;;;;16.26;100.00;99510.44;2091173;28;20172;-73
2022/06/05 04:33:46;;;;;;;89.37;39.27;;;;;;;16.31;100.00;99507.53;2090104;28;20195;-73
2022/06/05 04:34:51;;;;;;;101.05;39.80;;;;;;;16.38;100.00;99512.44;2090181;28;20199;-73
2022/06/05 04:35:51;;;;;;;78.82;39.20;;;;;;;16.47;100.00;99504.31;2090204;28;20244;-73
2022/06/05 04:36:54;;;;;;;83.10;39.07;;;;;;;16.49;100.00;99508.25;2081628;28;20224;-73
2022/06/05 04:37:54;;;;;;;66.97;38.53;;;;;;;16.52;100.00;99513.03;2090416;28;20271;-73
2022/06/05 04:38:57;;;;;;;76.60;40.03;;;;;;;16.50;100.00;99506.34;2090973;28;20202;-73
2022/06/05 04:39:59;;;;;;;103.50;40.58;;;;;;;16.51;100.00;99506.06;2090896;28;20202;-73
2022/06/05 04:41:00;;;;;;;81.53;38.40;;;;;;;16.49;100.00;99502.88;2091026;28;20645;-73
2022/06/05 04:42:02;;;;;;;86.82;38.78;;;;;;;16.52;100.00;99506.84;2090872;28;20187;-73
2022/06/05 04:43:04;;;;;;;108.38;39.60;;;;;;;16.58;100.00;99510.91;2090816;28;20222;-73
2022/06/05 04:44:06;;;;;;;100.15;38.03;;;;;;;16.60;100.00;99506.00;2090855;28;20274;-73
2022/06/05 04:45:09;;;;;;;79.70;38.07;;;;;;;16.61;100.00;99502.22;2090129;28;20199;-73
2022/06/05 04:46:11;;;;;;;97.78;40.50;;;;;;;16.56;100.00;99497.78;2090271;28;20436;-73
2022/06/05 04:47:13;;;;;;;75.45;39.85;;;;;;;16.55;100.00;99498.09;2090708;28;20692;-73
2022/06/05 04:48:14;;;;;;;90.65;36.50;;;;;;;16.62;100.00;99501.88;2090015;28;20259;-73
2022/06/05 04:49:19;;;;;;;84.03;35.97;;;;;;;16.70;100.00;99502.97;2090218;28;20195;-73
2022/06/05 04:50:22;;;;;;;67.63;37.42;;;;;;;16.74;100.00;99503.09;2090806;28;20274;-73
2022/06/05 04:51:26;;;;;;;71.82;37.20;;;;;;;16.80;100.00;99504.50;2090291;28;20280;-73
2022/06/05 04:52:28;;;;;;;72.83;36.43;;;;;;;16.84;100.00;99508.13;2090766;28;20198;-73
2022/06/05 04:53:30;;;;;;;62.10;34.72;;;;;;;16.88;100.00;99511.75;2090736;28;20461;-73